Time;durP1;ratioP1;P1;durP2;ratioP2;P2;SDS_P1;SDS_P2;PMS_P1;PMS_P2;Temp;Humidity;BMP_temperature;BMP_pressure;BME280_temperature;BME280_humidity;BME280_pressure;Samples;Min_cycle;Max_cycle;Signal;HPM_P1;HPM_P2
2023/08/21 00:00:17;;;;;;;0.47;0.40;;;;;;;;;;5012581;28;20057;-65
2023/08/21 00:02:43;;;;;;;0.32;0.30;;;;;;;;;;5015158;28;20042;-65
2023/08/21 00:05:09;;;;;;;0.50;0.50;;;;;;;;;;5017526;28;20117;-65
2023/08/21 00:07:35;;;;;;;0.77;0.63;;;;;;;;;;5017661;28;20479;-65
2023/08/21 00:10:01;;;;;;;0.65;0.50;;;;;;;;;;5008062;28;20049;-65
2023/08/21 00:12:28;;;;;;;0.40;0.40;;;;;;;;;;5016947;28;20793;-65
2023/08/21 00:14:53;;;;;;;0.55;0.50;;;;;;;;;;5016560;28;20060;-65
2023/08/21 00:17:19;;;;;;;0.80;0.50;;;;;;;;;;5012989;28;20488;-65
2023/08/21 00:19:45;;;;;;;0.68;0.60;;;;;;;;;;5013903;28;20129;-65
2023/08/21 00:22:12;;;;;;;0.52;0.40;;;;;;;;;;5016160;28;20443;-65
2023/08/21 00:24:38;;;;;;;0.35;0.35;;;;;;;;;;5014990;28;20037;-65
2023/08/21 00:27:04;;;;;;;0.40;0.40;;;;;;;;;;5014753;28;20045;-65
2023/08/21 00:29:30;;;;;;;0.40;0.40;;;;;;;;;;5013779;28;20451;-65
2023/08/21 00:31:56;;;;;;;0.73;0.52;;;;;;;;;;5013093;28;20057;-64
2023/08/21 00:34:22;;;;;;;0.47;0.43;;;;;;;;;;5015578;28;20099;-65
2023/08/21 00:36:48;;;;;;;0.80;0.43;;;;;;;;;;5016947;28;20077;-65
2023/08/21 00:39:14;;;;;;;0.40;0.40;;;;;;;;;;5015312;28;20079;-65
2023/08/21 00:41:40;;;;;;;1.73;0.45;;;;;;;;;;5013983;28;20061;-65
2023/08/21 00:44:06;;;;;;;0.70;0.50;;;;;;;;;;5013180;28;20407;-65
2023/08/21 00:46:32;;;;;;;0.40;0.40;;;;;;;;;;5014529;28;20252;-65
2023/08/21 00:48:58;;;;;;;0.50;0.50;;;;;;;;;;5016513;28;20519;-65
2023/08/21 00:51:25;;;;;;;0.47;0.40;;;;;;;;;;5016517;28;20042;-65
2023/08/21 00:53:51;;;;;;;0.40;0.40;;;;;;;;;;5012760;28;20042;-65
2023/08/21 00:56:17;;;;;;;0.57;0.57;;;;;;;;;;5018261;28;20046;-65
2023/08/21 00:58:43;;;;;;;0.52;0.52;;;;;;;;;;5015087;28;20053;-65
2023/08/21 01:01:09;;;;;;;0.75;0.45;;;;;;;;;;5013848;28;20037;-65
2023/08/21 01:03:35;;;;;;;1.20;0.60;;;;;;;;;;5012420;28;20071;-64
2023/08/21 01:06:01;;;;;;;1.58;0.70;;;;;;;;;;5012907;28;20040;-64
2023/08/21 01:08:27;;;;;;;0.50;0.43;;;;;;;;;;5013468;28;20184;-65
2023/08/21 01:10:59;;;;;;;0.77;0.63;;;;;;;;;;5014863;28;20612;-65
2023/08/21 01:13:44;;;;;;;0.57;0.50;;;;;;;;;;5015448;28;20061;-65
2023/08/21 01:16:10;;;;;;;0.77;0.60;;;;;;;;;;5013518;28;20033;-65
2023/08/21 01:18:37;;;;;;;0.80;0.70;;;;;;;;;;5012987;28;20038;-65
2023/08/21 01:21:05;;;;;;;0.73;0.70;;;;;;;;;;5013323;28;20084;-65
2023/08/21 01:23:32;;;;;;;2.53;0.70;;;;;;;;;;5015873;28;20087;-65
2023/08/21 01:25:58;;;;;;;1.13;0.70;;;;;;;;;;5015844;28;20045;-65
2023/08/21 01:28:24;;;;;;;0.82;0.82;;;;;;;;;;5013479;28;20046;-65
2023/08/21 01:30:51;;;;;;;0.70;0.70;;;;;;;;;;5015656;28;20125;-65
2023/08/21 01:33:19;;;;;;;2.38;0.82;;;;;;;;;;5013732;28;20041;-65
2023/08/21 01:35:45;;;;;;;0.57;0.57;;;;;;;;;;5012496;28;20140;-65
2023/08/21 01:38:11;;;;;;;0.73;0.60;;;;;;;;;;5013039;28;20048;-65
2023/08/21 01:40:37;;;;;;;0.73;0.73;;;;;;;;;;5016163;28;20042;-65
2023/08/21 01:43:03;;;;;;;0.60;0.60;;;;;;;;;;5014858;28;20558;-65
2023/08/21 01:45:29;;;;;;;0.70;0.70;;;;;;;;;;5014159;28;20443;-64
2023/08/21 01:47:55;;;;;;;0.30;0.30;;;;;;;;;;5012252;28;20050;-64
2023/08/21 01:50:21;;;;;;;1.98;0.60;;;;;;;;;;5012384;28;20467;-65
2023/08/21 01:52:47;;;;;;;1.25;0.60;;;;;;;;;;5015911;28;20103;-65
2023/08/21 01:55:13;;;;;;;0.60;0.60;;;;;;;;;;5015261;28;20053;-64
2023/08/21 01:57:39;;;;;;;1.65;0.90;;;;;;;;;;5014891;28;20530;-64
2023/08/21 02:00:06;;;;;;;0.75;0.52;;;;;;;;;;5011531;28;20053;-65
2023/08/21 02:02:32;;;;;;;0.65;0.57;;;;;;;;;;5011950;28;20689;-65
2023/08/21 02:04:58;;;;;;;0.68;0.60;;;;;;;;;;5015587;28;20037;-65
2023/08/21 02:07:24;;;;;;;1.38;0.88;;;;;;;;;;5015367;28;20479;-65
2023/08/21 02:09:50;;;;;;;0.90;0.63;;;;;;;;;;5015107;28;20045;-65
2023/08/21 02:12:16;;;;;;;0.80;0.80;;;;;;;;;;5015365;28;20098;-65
2023/08/21 02:14:42;;;;;;;0.70;0.60;;;;;;;;;;5015740;28;20100;-65
2023/08/21 02:17:09;;;;;;;0.95;0.65;;;;;;;;;;5012555;28;20079;-65
2023/08/21 02:19:35;;;;;;;0.80;0.60;;;;;;;;;;5012744;28;20046;-65
2023/08/21 02:22:01;;;;;;;3.15;0.65;;;;;;;;;;5013436;28;20071;-65
2023/08/21 02:24:27;;;;;;;0.85;0.60;;;;;;;;;;5015420;28;20049;-65
2023/08/21 02:26:53;;;;;;;0.95;0.65;;;;;;;;;;5015790;28;20099;-65
2023/08/21 02:29:19;;;;;;;0.98;0.80;;;;;;;;;;5013206;28;20053;-65
2023/08/21 02:31:45;;;;;;;1.00;0.98;;;;;;;;;;5012325;28;20030;-65
2023/08/21 02:34:11;;;;;;;0.82;0.82;;;;;;;;;;5014294;28;20124;-65
2023/08/21 02:36:37;;;;;;;0.57;0.57;;;;;;;;;;5019523;28;20045;-65
2023/08/21 02:39:03;;;;;;;0.57;0.57;;;;;;;;;;5018522;28;20507;-65
2023/08/21 02:41:29;;;;;;;0.50;0.47;;;;;;;;;;5017371;28;20085;-65
2023/08/21 02:43:55;;;;;;;0.50;0.50;;;;;;;;;;5016483;28;20385;-65
2023/08/21 02:46:22;;;;;;;0.50;0.50;;;;;;;;;;5015912;28;20045;-64
2023/08/21 02:48:48;;;;;;;0.57;0.57;;;;;;;;;;5019865;28;20052;-64
2023/08/21 02:51:14;;;;;;;0.50;0.50;;;;;;;;;;5017102;28;20144;-64
2023/08/21 02:53:40;;;;;;;0.65;0.60;;;;;;;;;;5019698;28;20119;-64
2023/08/21 02:56:06;;;;;;;0.60;0.60;;;;;;;;;;5018760;28;20598;-65
2023/08/21 02:58:32;;;;;;;0.43;0.43;;;;;;;;;;5018545;28;20116;-65
2023/08/21 03:00:58;;;;;;;0.50;0.50;;;;;;;;;;5019068;28;20077;-65
2023/08/21 03:03:24;;;;;;;0.38;0.38;;;;;;;;;;5018744;28;20376;-65
2023/08/21 03:05:50;;;;;;;0.77;0.77;;;;;;;;;;5017151;28;20041;-65
2023/08/21 03:08:16;;;;;;;0.50;0.50;;;;;;;;;;5015355;28;20073;-65
2023/08/21 03:10:42;;;;;;;0.68;0.60;;;;;;;;;;5016209;28;20046;-65
2023/08/21 03:13:08;;;;;;;2.05;1.17;;;;;;;;;;5018231;28;20091;-64
2023/08/21 03:15:35;;;;;;;0.60;0.60;;;;;;;;;;5018531;28;20057;-65
2023/08/21 03:18:01;;;;;;;1.65;0.63;;;;;;;;;;5016401;28;20046;-65
2023/08/21 03:20:27;;;;;;;0.63;0.63;;;;;;;;;;5014658;28;20044;-65
2023/08/21 03:22:53;;;;;;;0.43;0.30;;;;;;;;;;5015152;28;20520;-65
2023/08/21 03:25:19;;;;;;;0.68;0.40;;;;;;;;;;5017656;28;20048;-65
2023/08/21 03:27:49;;;;;;;0.20;0.20;;;;;;;;;;5017807;28;20474;-64
2023/08/21 03:30:15;;;;;;;0.30;0.30;;;;;;;;;;5016460;28;20088;-64
2023/08/21 03:32:41;;;;;;;0.70;0.32;;;;;;;;;;5015860;28;20037;-64
2023/08/21 03:35:08;;;;;;;0.20;0.20;;;;;;;;;;5021649;28;20046;-64
2023/08/21 03:37:34;;;;;;;0.30;0.30;;;;;;;;;;5015178;28;20438;-64
2023/08/21 03:40:00;;;;;;;0.30;0.20;;;;;;;;;;5015665;28;20065;-64
2023/08/21 03:42:26;;;;;;;0.25;0.20;;;;;;;;;;5015787;28;20643;-64
2023/08/21 03:44:52;;;;;;;0.52;0.15;;;;;;;;;;5017938;28;20055;-64
2023/08/21 03:47:18;;;;;;;0.35;0.10;;;;;;;;;;5017085;28;20049;-65
2023/08/21 03:49:45;;;;;;;0.20;0.10;;;;;;;;;;5014787;28;20566;-65
2023/08/21 03:52:11;;;;;;;0.57;0.20;;;;;;;;;;5014920;28;20126;-64
2023/08/21 03:54:37;;;;;;;0.57;0.20;;;;;;;;;;5015387;28;20559;-64
2023/08/21 03:57:03;;;;;;;0.10;0.10;;;;;;;;;;5017173;28;20060;-64
2023/08/21 03:59:29;;;;;;;0.10;0.10;;;;;;;;;;5017391;28;20430;-64
2023/08/21 04:01:55;;;;;;;0.30;0.20;;;;;;;;;;5014380;28;20046;-64
2023/08/21 04:04:21;;;;;;;0.20;0.20;;;;;;;;;;5013934;28;20678;-64
2023/08/21 04:06:47;;;;;;;0.20;0.20;;;;;;;;;;5015341;28;20085;-64
2023/08/21 04:09:13;;;;;;;0.28;0.28;;;;;;;;;;5016910;28;20053;-64
2023/08/21 04:11:39;;;;;;;0.20;0.20;;;;;;;;;;5017930;28;20091;-64
2023/08/21 04:14:05;;;;;;;0.00;0.00;;;;;;;;;;5014463;28;20391;-64
2023/08/21 04:16:31;;;;;;;0.10;0.10;;;;;;;;;;5013619;28;20041;-64
2023/08/21 04:18:57;;;;;;;0.20;0.17;;;;;;;;;;5014680;28;20506;-64
2023/08/21 04:21:23;;;;;;;0.10;0.10;;;;;;;;;;5016548;28;20098;-65
2023/08/21 04:23:49;;;;;;;0.20;0.20;;;;;;;;;;5016342;28;20041;-64
2023/08/21 04:26:15;;;;;;;0.20;0.20;;;;;;;;;;5015261;28;20045;-64
2023/08/21 04:28:42;;;;;;;0.20;0.20;;;;;;;;;;5020174;28;20125;-65
2023/08/21 04:31:08;;;;;;;0.15;0.15;;;;;;;;;;5013384;28;20123;-65
2023/08/21 04:33:34;;;;;;;0.20;0.20;;;;;;;;;;5016788;28;20085;-64
2023/08/21 04:36:01;;;;;;;0.30;0.30;;;;;;;;;;5016857;28;20120;-64
2023/08/21 04:38:27;;;;;;;1.20;0.55;;;;;;;;;;5008005;28;20778;-64
2023/08/21 04:40:53;;;;;;;0.20;0.20;;;;;;;;;;5016727;28;20144;-64
2023/08/21 04:43:19;;;;;;;1.00;0.30;;;;;;;;;;5016248;28;20137;-64
2023/08/21 04:45:55;;;;;;;0.30;0.30;;;;;;;;;;5015394;28;20057;-64
2023/08/21 04:48:21;;;;;;;0.20;0.20;;;;;;;;;;5016588;28;20053;-64
2023/08/21 04:50:47;;;;;;;0.30;0.30;;;;;;;;;;5015936;28;20059;-64
2023/08/21 04:53:13;;;;;;;0.10;0.10;;;;;;;;;;5016375;28;20042;-64
2023/08/21 04:55:42;;;;;;;0.20;0.20;;;;;;;;;;5014802;28;20119;-64
2023/08/21 04:58:09;;;;;;;0.20;0.20;;;;;;;;;;5011402;28;20092;-65
2023/08/21 05:00:35;;;;;;;0.20;0.20;;;;;;;;;;5013102;28;20061;-64
2023/08/21 05:03:01;;;;;;;0.10;0.10;;;;;;;;;;5014483;28;20041;-64
2023/08/21 05:05:27;;;;;;;0.10;0.10;;;;;;;;;;5015445;28;20076;-64
2023/08/21 05:07:53;;;;;;;0.10;0.10;;;;;;;;;;5014480;28;20077;-64
2023/08/21 05:10:20;;;;;;;0.20;0.20;;;;;;;;;;5012878;28;20037;-64
2023/08/21 05:12:46;;;;;;;0.20;0.20;;;;;;;;;;5012758;28;20107;-64
2023/08/21 05:15:12;;;;;;;0.38;0.10;;;;;;;;;;5016301;28;20491;-64
2023/08/21 05:17:39;;;;;;;0.20;0.20;;;;;;;;;;5016697;28;20116;-64
2023/08/21 05:20:05;;;;;;;0.10;0.10;;;;;;;;;;5013419;28;20504;-64
2023/08/21 05:22:31;;;;;;;0.10;0.10;;;;;;;;;;5012731;28;20073;-64
2023/08/21 05:24:57;;;;;;;0.30;0.25;;;;;;;;;;5012908;28;20116;-64
2023/08/21 05:27:23;;;;;;;0.20;0.17;;;;;;;;;;5015577;28;20042;-64
2023/08/21 05:29:51;;;;;;;0.10;0.10;;;;;;;;;;5014632;28;20045;-64
2023/08/21 05:32:17;;;;;;;0.20;0.10;;;;;;;;;;5014177;28;20467;-64
2023/08/21 05:34:43;;;;;;;0.20;0.20;;;;;;;;;;5013312;28;20038;-64
2023/08/21 05:37:09;;;;;;;0.35;0.10;;;;;;;;;;5013012;28;20038;-64
2023/08/21 05:39:35;;;;;;;0.10;0.10;;;;;;;;;;5016443;28;20103;-64
2023/08/21 05:42:01;;;;;;;0.30;0.30;;;;;;;;;;5015165;28;20076;-64
2023/08/21 05:44:27;;;;;;;0.10;0.10;;;;;;;;;;5014447;28;20124;-64
2023/08/21 05:46:54;;;;;;;0.25;0.25;;;;;;;;;;5013046;28;20084;-64
2023/08/21 05:49:20;;;;;;;0.43;0.30;;;;;;;;;;5012187;28;20442;-64
2023/08/21 05:51:46;;;;;;;0.40;0.35;;;;;;;;;;5015989;28;20117;-64
2023/08/21 05:54:12;;;;;;;0.32;0.30;;;;;;;;;;5015670;28;20034;-65
2023/08/21 05:56:38;;;;;;;0.30;0.20;;;;;;;;;;5014439;28;20072;-64
2023/08/21 05:59:04;;;;;;;0.45;0.13;;;;;;;;;;5012392;28;20616;-64
2023/08/21 06:01:30;;;;;;;0.25;0.10;;;;;;;;;;5012163;28;20057;-64
2023/08/21 06:03:56;;;;;;;0.17;0.17;;;;;;;;;;5015586;28;20065;-64
2023/08/21 06:06:22;;;;;;;0.10;0.10;;;;;;;;;;5014120;28;20049;-64
2023/08/21 06:08:48;;;;;;;0.17;0.15;;;;;;;;;;5014486;28;20045;-64
2023/08/21 06:11:15;;;;;;;0.30;0.30;;;;;;;;;;5016615;28;20040;-64
2023/08/21 06:13:41;;;;;;;0.20;0.20;;;;;;;;;;5016840;28;20045;-64
2023/08/21 06:16:07;;;;;;;0.25;0.10;;;;;;;;;;5018092;28;20046;-64
2023/08/21 06:18:33;;;;;;;0.50;0.20;;;;;;;;;;5018973;28;20557;-65
2023/08/21 06:20:59;;;;;;;0.10;0.10;;;;;;;;;;5017798;28;20527;-65
2023/08/21 06:23:25;;;;;;;0.10;0.10;;;;;;;;;;5015034;28;20045;-65
2023/08/21 06:25:51;;;;;;;0.68;0.28;;;;;;;;;;5015903;28;20125;-65
2023/08/21 06:28:17;;;;;;;0.10;0.10;;;;;;;;;;5018248;28;20045;-65
2023/08/21 06:30:43;;;;;;;0.10;0.10;;;;;;;;;;5019359;28;20132;-65
2023/08/21 06:33:10;;;;;;;0.10;0.10;;;;;;;;;;5018145;28;20496;-65
2023/08/21 06:35:39;;;;;;;0.17;0.10;;;;;;;;;;5015845;28;20037;-65
2023/08/21 06:38:06;;;;;;;0.08;0.00;;;;;;;;;;5021561;28;20805;-65
2023/08/21 06:40:32;;;;;;;0.00;0.00;;;;;;;;;;5018547;28;20049;-65
2023/08/21 06:42:58;;;;;;;0.00;0.00;;;;;;;;;;5018732;28;20049;-65
2023/08/21 06:45:25;;;;;;;0.00;0.00;;;;;;;;;;5016444;28;20054;-65
2023/08/21 06:47:51;;;;;;;0.10;0.10;;;;;;;;;;5015393;28;20520;-65
2023/08/21 06:50:17;;;;;;;0.10;0.10;;;;;;;;;;5014618;28;20050;-65
2023/08/21 06:52:43;;;;;;;0.00;0.00;;;;;;;;;;5017312;28;20102;-65
2023/08/21 06:55:09;;;;;;;0.63;0.20;;;;;;;;;;5018434;28;20617;-65
2023/08/21 06:57:37;;;;;;;0.47;0.22;;;;;;;;;;5016893;28;20167;-65
2023/08/21 07:00:04;;;;;;;0.10;0.10;;;;;;;;;;5015158;28;20742;-65
2023/08/21 07:02:30;;;;;;;0.40;0.15;;;;;;;;;;5015178;28;20049;-65
2023/08/21 07:04:56;;;;;;;0.30;0.20;;;;;;;;;;5017566;28;20105;-65
2023/08/21 07:07:22;;;;;;;0.20;0.10;;;;;;;;;;5017901;28;20116;-65
2023/08/21 07:09:49;;;;;;;0.40;0.25;;;;;;;;;;5017017;28;20693;-65
2023/08/21 07:12:15;;;;;;;0.25;0.25;;;;;;;;;;5014712;28;20034;-65
2023/08/21 07:14:41;;;;;;;0.28;0.20;;;;;;;;;;5015706;28;20511;-65
2023/08/21 07:17:07;;;;;;;0.08;0.00;;;;;;;;;;5017572;28;20041;-65
2023/08/21 07:19:33;;;;;;;0.43;0.30;;;;;;;;;;5017690;28;20045;-65
2023/08/21 07:21:59;;;;;;;0.98;0.57;;;;;;;;;;5017110;28;20472;-65
2023/08/21 07:24:25;;;;;;;0.35;0.30;;;;;;;;;;5014695;28;20042;-65
2023/08/21 07:26:51;;;;;;;0.47;0.30;;;;;;;;;;5014468;28;20057;-65
2023/08/21 07:29:17;;;;;;;0.30;0.20;;;;;;;;;;5016815;28;20053;-65
2023/08/21 07:31:43;;;;;;;0.50;0.43;;;;;;;;;;5018355;28;20042;-65
2023/08/21 07:34:09;;;;;;;0.82;0.40;;;;;;;;;;5016993;28;20411;-65
2023/08/21 07:36:35;;;;;;;0.73;0.25;;;;;;;;;;5014662;28;20392;-65
2023/08/21 07:39:01;;;;;;;0.88;0.30;;;;;;;;;;5014302;28;20036;-65
2023/08/21 07:41:27;;;;;;;2.08;0.45;;;;;;;;;;5015781;28;20044;-65
2023/08/21 07:43:54;;;;;;;1.10;0.38;;;;;;;;;;5017407;28;20064;-65
2023/08/21 07:46:20;;;;;;;0.77;0.30;;;;;;;;;;5017240;28;20539;-65
2023/08/21 07:48:46;;;;;;;1.00;0.40;;;;;;;;;;5017263;28;20136;-65
2023/08/21 07:51:12;;;;;;;1.58;0.63;;;;;;;;;;5017796;28;20049;-65
2023/08/21 07:53:39;;;;;;;0.85;0.40;;;;;;;;;;5014692;28;20670;-65
2023/08/21 07:56:05;;;;;;;0.85;0.43;;;;;;;;;;5013832;28;20104;-64
2023/08/21 07:58:32;;;;;;;0.47;0.40;;;;;;;;;;5014484;28;20491;-65
2023/08/21 08:00:58;;;;;;;0.52;0.20;;;;;;;;;;5016453;28;20172;-65
2023/08/21 08:03:25;;;;;;;1.33;0.57;;;;;;;;;;5017221;28;20033;-65
2023/08/21 08:05:51;;;;;;;1.48;0.40;;;;;;;;;;5015105;28;20503;-65
2023/08/21 08:08:17;;;;;;;0.40;0.32;;;;;;;;;;5012955;28;20046;-65
2023/08/21 08:10:44;;;;;;;0.80;0.32;;;;;;;;;;5014942;28;20072;-65
2023/08/21 08:13:10;;;;;;;0.50;0.30;;;;;;;;;;5015418;28;20048;-65
2023/08/21 08:15:36;;;;;;;0.45;0.40;;;;;;;;;;5009108;28;20081;-65
2023/08/21 08:18:03;;;;;;;0.65;0.20;;;;;;;;;;5015596;28;20046;-65
2023/08/21 08:20:29;;;;;;;0.70;0.45;;;;;;;;;;5016783;28;20116;-65
2023/08/21 08:22:55;;;;;;;0.82;0.30;;;;;;;;;;5015887;28;20091;-64
2023/08/21 08:25:21;;;;;;;0.47;0.47;;;;;;;;;;5013242;28;20045;-65
2023/08/21 08:27:47;;;;;;;0.30;0.30;;;;;;;;;;5013909;28;20053;-65
2023/08/21 08:30:13;;;;;;;3.08;0.55;;;;;;;;;;5015112;28;20479;-65
2023/08/21 08:32:40;;;;;;;0.88;0.52;;;;;;;;;;5016350;28;20049;-65
2023/08/21 08:35:07;;;;;;;1.02;0.60;;;;;;;;;;5016109;28;20041;-65
2023/08/21 08:37:33;;;;;;;0.60;0.50;;;;;;;;;;5013061;28;20650;-65
2023/08/21 08:39:59;;;;;;;0.43;0.40;;;;;;;;;;5013355;28;20050;-65
2023/08/21 08:42:25;;;;;;;0.38;0.30;;;;;;;;;;5014507;28;20103;-65
2023/08/21 08:44:55;;;;;;;0.47;0.47;;;;;;;;;;5015634;28;20480;-65
2023/08/21 08:47:21;;;;;;;1.00;0.50;;;;;;;;;;5008095;28;20088;-65
2023/08/21 08:49:48;;;;;;;0.45;0.38;;;;;;;;;;5016182;28;20045;-65
2023/08/21 08:52:17;;;;;;;1.50;0.63;;;;;;;;;;5016733;28;20041;-65
2023/08/21 08:54:43;;;;;;;0.57;0.40;;;;;;;;;;5014709;28;20056;-65
2023/08/21 08:57:09;;;;;;;0.60;0.43;;;;;;;;;;5012309;28;20053;-65
2023/08/21 08:59:35;;;;;;;0.57;0.38;;;;;;;;;;5014139;28;20050;-65
2023/08/21 09:02:01;;;;;;;0.32;0.32;;;;;;;;;;5016100;28;20415;-65
2023/08/21 09:04:27;;;;;;;0.68;0.30;;;;;;;;;;5015950;28;20104;-65
2023/08/21 09:07:06;;;;;;;3.25;0.80;;;;;;;;;;5014044;28;20057;-65
2023/08/21 09:09:37;;;;;;;0.85;0.60;;;;;;;;;;5012991;28;20116;-65
2023/08/21 09:12:07;;;;;;;0.70;0.65;;;;;;;;;;5015165;28;20049;-65
2023/08/21 09:14:34;;;;;;;0.65;0.45;;;;;;;;;;5016358;28;20049;-65
2023/08/21 09:17:04;;;;;;;1.05;0.63;;;;;;;;;;5014772;28;20092;-65
2023/08/21 09:19:30;;;;;;;0.75;0.52;;;;;;;;;;5012482;28;20117;-65
2023/08/21 09:21:56;;;;;;;1.10;0.45;;;;;;;;;;5013237;28;20108;-65
2023/08/21 09:24:23;;;;;;;1.10;0.40;;;;;;;;;;5015397;28;20821;-65
2023/08/21 09:26:49;;;;;;;1.63;0.50;;;;;;;;;;5015282;28;20076;-65
2023/08/21 09:29:15;;;;;;;1.13;0.73;;;;;;;;;;5013741;28;20047;-65
2023/08/21 09:31:43;;;;;;;0.30;0.30;;;;;;;;;;5013259;28;20136;-65
2023/08/21 09:34:09;;;;;;;1.25;0.60;;;;;;;;;;5012413;28;20056;-65
2023/08/21 09:36:36;;;;;;;1.25;0.60;;;;;;;;;;5015805;28;20087;-65
2023/08/21 09:39:03;;;;;;;1.88;0.90;;;;;;;;;;5015234;28;20045;-65
2023/08/21 09:41:29;;;;;;;0.93;0.50;;;;;;;;;;5013149;28;20045;-64
2023/08/21 09:44:03;;;;;;;0.50;0.45;;;;;;;;;;5013468;28;20073;-64
2023/08/21 09:46:30;;;;;;;1.63;0.80;;;;;;;;;;5015077;28;20046;-64
2023/08/21 09:48:56;;;;;;;1.40;0.60;;;;;;;;;;5020410;28;20041;-65
2023/08/21 09:51:22;;;;;;;0.80;0.50;;;;;;;;;;5019438;28;20030;-65
2023/08/21 09:53:51;;;;;;;2.20;0.70;;;;;;;;;;5019322;28;20041;-65
2023/08/21 09:56:20;;;;;;;2.17;0.73;;;;;;;;;;5019746;28;20079;-65
2023/08/21 09:58:49;;;;;;;1.38;0.93;;;;;;;;;;5017481;28;20115;-65
2023/08/21 10:01:17;;;;;;;0.70;0.60;;;;;;;;;;5015873;28;20049;-65
2023/08/21 10:03:47;;;;;;;0.68;0.63;;;;;;;;;;5017958;28;20046;-65
2023/08/21 10:06:14;;;;;;;1.05;0.70;;;;;;;;;;5019768;28;20037;-65
2023/08/21 10:08:41;;;;;;;0.98;0.75;;;;;;;;;;5018285;28;20033;-65
2023/08/21 10:11:08;;;;;;;1.38;0.80;;;;;;;;;;5015278;28;20566;-65
2023/08/21 10:13:35;;;;;;;1.40;0.50;;;;;;;;;;5016429;28;20048;-65
2023/08/21 10:16:01;;;;;;;1.05;0.80;;;;;;;;;;5017330;28;20034;-64
2023/08/21 10:18:32;;;;;;;1.35;0.55;;;;;;;;;;5019118;28;20107;-65
2023/08/21 10:21:10;;;;;;;0.85;0.57;;;;;;;;;;5018085;28;20579;-65
2023/08/21 10:23:37;;;;;;;1.35;1.10;;;;;;;;;;5015135;28;20037;-64
2023/08/21 10:26:06;;;;;;;0.60;0.50;;;;;;;;;;5017004;28;20116;-64
2023/08/21 10:28:42;;;;;;;1.08;0.68;;;;;;;;;;5018501;28;20082;-64
2023/08/21 10:31:28;;;;;;;1.50;0.70;;;;;;;;;;5017786;28;20059;-64
2023/08/21 10:33:54;;;;;;;0.90;0.60;;;;;;;;;;5015543;28;20081;-64
2023/08/21 10:36:39;;;;;;;1.55;0.80;;;;;;;;;;5016624;28;20100;-64
2023/08/21 10:39:14;;;;;;;0.88;0.68;;;;;;;;;;5018824;28;20041;-65
2023/08/21 10:41:40;;;;;;;1.00;0.73;;;;;;;;;;5015917;28;20564;-65
2023/08/21 10:44:06;;;;;;;0.98;0.57;;;;;;;;;;5015373;28;20104;-65
2023/08/21 10:47:05;;;;;;;1.20;0.82;;;;;;;;;;5018079;28;20492;-65
2023/08/21 10:49:31;;;;;;;0.95;0.65;;;;;;;;;;4985469;28;20058;-64
2023/08/21 10:51:57;;;;;;;1.15;0.60;;;;;;;;;;5018236;28;20052;-64
2023/08/21 10:54:23;;;;;;;1.13;0.70;;;;;;;;;;5018047;28;20429;-64
2023/08/21 10:56:49;;;;;;;1.10;0.70;;;;;;;;;;5014970;28;20119;-64
2023/08/21 10:59:15;;;;;;;1.20;0.57;;;;;;;;;;5015842;28;20456;-64
2023/08/21 11:01:45;;;;;;;0.98;0.82;;;;;;;;;;5016367;28;20092;-64
2023/08/21 11:04:14;;;;;;;1.35;0.73;;;;;;;;;;5017164;28;20053;-64
2023/08/21 11:06:40;;;;;;;0.77;0.52;;;;;;;;;;5017860;28;20092;-65
2023/08/21 11:09:12;;;;;;;1.17;0.80;;;;;;;;;;5014961;28;20049;-65
2023/08/21 11:11:38;;;;;;;1.92;0.82;;;;;;;;;;5015386;28;20072;-65
2023/08/21 11:14:04;;;;;;;1.90;0.77;;;;;;;;;;5017974;28;20045;-65
2023/08/21 11:16:30;;;;;;;0.65;0.65;;;;;;;;;;5018208;28;20037;-65
2023/08/21 11:18:56;;;;;;;0.70;0.50;;;;;;;;;;5016287;28;20048;-65
2023/08/21 11:21:25;;;;;;;0.52;0.40;;;;;;;;;;5013070;28;20046;-65
2023/08/21 11:23:51;;;;;;;0.50;0.50;;;;;;;;;;5015024;28;20456;-64
2023/08/21 11:26:17;;;;;;;0.30;0.30;;;;;;;;;;5017049;28;20483;-64
2023/08/21 11:28:43;;;;;;;0.75;0.43;;;;;;;;;;5018362;28;20538;-65
2023/08/21 11:31:10;;;;;;;2.22;0.63;;;;;;;;;;5016627;28;20073;-65
2023/08/21 11:33:39;;;;;;;1.17;0.55;;;;;;;;;;5014365;28;20048;-65
2023/08/21 11:36:05;;;;;;;0.45;0.45;;;;;;;;;;5014568;28;20562;-65
2023/08/21 11:38:31;;;;;;;1.05;0.57;;;;;;;;;;5018012;28;20057;-65
2023/08/21 11:40:58;;;;;;;0.95;0.40;;;;;;;;;;5017260;28;20071;-65
2023/08/21 11:43:40;;;;;;;0.55;0.43;;;;;;;;;;5015632;28;20052;-65
2023/08/21 11:46:08;;;;;;;0.68;0.50;;;;;;;;;;5013649;28;20078;-65
2023/08/21 11:48:34;;;;;;;1.05;0.70;;;;;;;;;;5016661;28;20100;-65
2023/08/21 11:51:00;;;;;;;1.25;0.32;;;;;;;;;;5017401;28;20669;-65
2023/08/21 11:53:35;;;;;;;1.23;0.57;;;;;;;;;;5016703;28;20128;-65
2023/08/21 11:56:01;;;;;;;0.30;0.30;;;;;;;;;;5014245;28;20042;-64
2023/08/21 11:58:28;;;;;;;1.02;0.50;;;;;;;;;;5014099;28;20050;-64
2023/08/21 12:00:54;;;;;;;0.70;0.40;;;;;;;;;;5017264;28;20704;-65
2023/08/21 12:03:20;;;;;;;0.70;0.60;;;;;;;;;;5017218;28;20095;-65
2023/08/21 12:05:46;;;;;;;0.93;0.60;;;;;;;;;;5015905;28;20069;-65
2023/08/21 12:08:12;;;;;;;0.68;0.40;;;;;;;;;;5012334;28;20731;-65
2023/08/21 12:10:38;;;;;;;1.75;0.40;;;;;;;;;;5013806;28;20037;-65
2023/08/21 12:13:04;;;;;;;0.75;0.40;;;;;;;;;;5016859;28;20025;-65
2023/08/21 12:15:30;;;;;;;2.65;0.70;;;;;;;;;;5016672;28;20507;-65
2023/08/21 12:17:56;;;;;;;0.10;0.10;;;;;;;;;;5016269;28;20048;-65
2023/08/21 12:20:22;;;;;;;1.20;0.50;;;;;;;;;;5013686;28;20064;-65
2023/08/21 12:22:48;;;;;;;1.02;0.52;;;;;;;;;;5013232;28;20549;-65
2023/08/21 12:25:16;;;;;;;1.33;0.63;;;;;;;;;;5016431;28;20056;-65
2023/08/21 12:27:42;;;;;;;0.63;0.60;;;;;;;;;;5016720;28;20037;-65
2023/08/21 12:30:08;;;;;;;0.55;0.30;;;;;;;;;;5014578;28;20156;-65
2023/08/21 12:32:34;;;;;;;1.05;0.60;;;;;;;;;;5014046;28;20042;-65
2023/08/21 12:35:00;;;;;;;1.13;0.63;;;;;;;;;;5013530;28;20033;-65
2023/08/21 12:37:26;;;;;;;0.93;0.60;;;;;;;;;;5015059;28;20041;-65
2023/08/21 12:39:54;;;;;;;2.83;0.80;;;;;;;;;;5016701;28;20061;-65
2023/08/21 12:42:21;;;;;;;1.27;0.60;;;;;;;;;;5014100;28;20056;-65
2023/08/21 12:44:47;;;;;;;5.43;0.65;;;;;;;;;;5013955;28;20116;-65
2023/08/21 12:47:12;;;;;;;1.17;0.60;;;;;;;;;;5013370;28;20125;-65
2023/08/21 12:49:39;;;;;;;0.90;0.40;;;;;;;;;;5013964;28;20647;-65
2023/08/21 12:52:06;;;;;;;0.95;0.40;;;;;;;;;;5016013;28;20037;-65
2023/08/21 12:54:32;;;;;;;0.45;0.35;;;;;;;;;;5014975;28;20052;-65
2023/08/21 12:56:58;;;;;;;1.27;0.38;;;;;;;;;;5012427;28;20519;-65
2023/08/21 12:59:24;;;;;;;0.77;0.30;;;;;;;;;;5012980;28;20125;-65
2023/08/21 13:01:50;;;;;;;0.98;0.40;;;;;;;;;;5015928;28;20053;-65
2023/08/21 13:04:17;;;;;;;2.25;0.50;;;;;;;;;;5014854;28;20044;-65
2023/08/21 13:06:44;;;;;;;1.17;0.52;;;;;;;;;;5014863;28;20053;-65
2023/08/21 13:09:10;;;;;;;0.88;0.50;;;;;;;;;;5012695;28;20459;-65
2023/08/21 13:11:36;;;;;;;1.75;0.70;;;;;;;;;;5012708;28;20034;-65
2023/08/21 13:14:02;;;;;;;2.63;0.85;;;;;;;;;;5015214;28;20041;-65
2023/08/21 13:16:28;;;;;;;1.13;0.60;;;;;;;;;;5016180;28;20055;-65
2023/08/21 13:18:54;;;;;;;0.50;0.50;;;;;;;;;;5014469;28;20049;-65
2023/08/21 13:21:20;;;;;;;0.63;0.35;;;;;;;;;;5012470;28;20119;-65
2023/08/21 13:23:46;;;;;;;1.25;0.50;;;;;;;;;;5013378;28;20096;-65
2023/08/21 13:26:12;;;;;;;1.80;0.40;;;;;;;;;;5014421;28;20045;-65
2023/08/21 13:28:38;;;;;;;0.75;0.50;;;;;;;;;;5015666;28;20431;-65
2023/08/21 13:31:05;;;;;;;1.08;0.40;;;;;;;;;;5014781;28;20124;-65
2023/08/21 13:33:31;;;;;;;0.60;0.38;;;;;;;;;;5012134;28;20449;-65
2023/08/21 13:35:57;;;;;;;1.25;0.40;;;;;;;;;;5013015;28;20115;-65
2023/08/21 13:38:23;;;;;;;0.95;0.45;;;;;;;;;;5013997;28;20518;-65
2023/08/21 13:40:49;;;;;;;1.08;0.47;;;;;;;;;;5015919;28;20041;-65
2023/08/21 13:43:15;;;;;;;0.52;0.40;;;;;;;;;;5015363;28;20072;-65
2023/08/21 13:45:42;;;;;;;1.10;0.45;;;;;;;;;;5011639;28;20444;-65
2023/08/21 13:48:08;;;;;;;2.33;0.90;;;;;;;;;;5012041;28;20060;-65
2023/08/21 13:50:35;;;;;;;0.43;0.32;;;;;;;;;;5014369;28;20046;-65
2023/08/21 13:53:01;;;;;;;0.30;0.30;;;;;;;;;;5015169;28;20056;-65
2023/08/21 13:55:27;;;;;;;0.73;0.40;;;;;;;;;;5015284;28;20465;-65
2023/08/21 13:57:53;;;;;;;2.97;0.50;;;;;;;;;;5012505;28;20141;-65
2023/08/21 14:00:20;;;;;;;0.40;0.30;;;;;;;;;;5011799;28;20077;-65
2023/08/21 14:02:46;;;;;;;0.75;0.40;;;;;;;;;;5014882;28;20042;-65
2023/08/21 14:05:12;;;;;;;0.25;0.10;;;;;;;;;;5017031;28;20104;-65
2023/08/21 14:07:38;;;;;;;0.47;0.20;;;;;;;;;;5020347;28;20724;-65
2023/08/21 14:10:05;;;;;;;0.20;0.20;;;;;;;;;;5012332;28;20046;-65
2023/08/21 14:12:31;;;;;;;1.08;0.30;;;;;;;;;;5012371;28;20137;-65
2023/08/21 14:14:59;;;;;;;0.88;0.52;;;;;;;;;;5013497;28;20038;-65
2023/08/21 14:17:25;;;;;;;0.80;0.40;;;;;;;;;;5015231;28;20091;-65
2023/08/21 14:19:51;;;;;;;1.23;0.60;;;;;;;;;;5015126;28;20081;-65
2023/08/21 14:22:17;;;;;;;0.60;0.38;;;;;;;;;;5011903;28;20143;-65
2023/08/21 14:24:43;;;;;;;0.68;0.65;;;;;;;;;;5012567;28;20045;-65
2023/08/21 14:27:09;;;;;;;0.13;0.13;;;;;;;;;;5013981;28;20042;-65
2023/08/21 14:29:35;;;;;;;0.40;0.20;;;;;;;;;;5014843;28;20131;-65
2023/08/21 14:32:01;;;;;;;0.40;0.17;;;;;;;;;;5018777;28;20488;-65
2023/08/21 14:34:27;;;;;;;0.50;0.28;;;;;;;;;;5015605;28;20054;-65
2023/08/21 14:36:58;;;;;;;1.02;0.43;;;;;;;;;;5015761;28;20058;-65
2023/08/21 14:39:24;;;;;;;1.95;0.43;;;;;;;;;;5017875;28;20053;-65